senior outdoor 2016

800 Metres men

Filter Top Lists

Filter Top Lists

Limit: 1:55.00

Rank Mark Competitor DOB Nat Pos Venue Date Results Score
1 1:42.15 David RUDISHA 17 DEC 1988 KEN KEN 1 Estádio Olímpico, Rio de Janeiro (BRA) 15 AUG 2016 1262
2 1:42.61 Taoufik MAKHLOUFI 29 APR 1988 ALG ALG 2 Estádio Olímpico, Rio de Janeiro (BRA) 15 AUG 2016 1247
3 1:42.87 Alfred KIPKETER 28 DEC 1996 KEN KEN 1 Paris (FRA) 27 AUG 2016 1239
4 1:42.93 Clayton MURPHY 26 FEB 1995 USA USA 3 Estádio Olímpico, Rio de Janeiro (BRA) 15 AUG 2016 1237
5 1:43.05 Jonathan KITILIT 24 APR 1994 KEN KEN 3 Paris (FRA) 27 AUG 2016 1234
6 1:43.37 Nicholas Kiplangat KIPKOECH 22 OCT 1992 KEN KEN 1 Nairobi (KEN) 29 APR 2016 1224
7 1:43.41 Pierre-Ambroise BOSSE 11 MAY 1992 FRA FRA 4 Estádio Olímpico, Rio de Janeiro (BRA) 15 AUG 2016 1222
8 1:43.43 Ferguson Cheruiyot ROTICH 30 NOV 1989 KEN KEN 4 Paris (FRA) 27 AUG 2016 1222
9 1:43.52 Ayanleh SOULEIMAN 03 DEC 1992 DJI DJI 5 Paris (FRA) 27 AUG 2016 1219
10 1:43.55 Donavan BRAZIER 15 APR 1997 USA USA 1 Eugene, OR (USA) 10 JUN 2016 1218
11 1:43.73 Marcin LEWANDOWSKI 13 JUN 1987 POL POL 7 Paris (FRA) 27 AUG 2016 1212
12 1:43.76 Adam KSZCZOT 02 SEP 1989 POL POL 8 Paris (FRA) 27 AUG 2016 1212
12 1:43.76 Kipyegon BETT 01 FEB 1998 KEN KEN 2 Olympiastadion, Berlin (GER) 03 SEP 2016 1212
14 1:43.95 Brandon MCBRIDE 15 JUN 1994 CAN CAN 2 Olympic Stadium, London (GBR) 22 JUL 2016 1206
15 1:44.07 Samir DAHMANI 03 APR 1991 FRA FRA 9 Paris (FRA) 27 AUG 2016 1202
16 1:44.20 Boris BERIAN 19 DEC 1992 USA USA 1 Hayward Field, Eugene, OR (USA) 28 MAY 2016 1198
17 1:44.51 Timothy KITUM 20 NOV 1994 KEN KEN 3 Nairobi (KEN) 29 APR 2016 1188
18 1:44.54 Amel TUKA 09 JAN 1991 BIH BIH 3 Boudewijnstadion, Bruxelles (BEL) 09 SEP 2016 1188
19 1:44.64 Boaz KIPRUGUT 18 MAY 1998 KEN KEN 3 Nairobi (KEN) 28 MAY 2016 1184
20 1:44.66 Nijel AMOS 15 MAR 1994 BOT BOT 4 Olympic Stadium, London (GBR) 22 JUL 2016 1184
21 1:44.70 Mohammed AMAN 10 JAN 1994 ETH ETH 3 Hayward Field, Eugene, OR (USA) 28 MAY 2016 1183
22 1:44.71 Jackson Mumbwa KIVUVA 11 AUG 1989 KEN KEN 5 Eldoret (KEN) 01 JUL 2016 1182
23 1:44.75 Wesley VÁZQUEZ 27 MAR 1994 PUR PUR 1f1 Gainesville, FL (USA) 01 APR 2016 1181
24 1:44.81 Yassine HETHAT 30 AUG 1991 ALG ALG 3sf2 Estádio Olímpico, Rio de Janeiro (BRA) 13 AUG 2016 1179
25 1:44.84 Willy Kiplimo TARBEI 30 MAY 1998 KEN KEN 1f1 Herzogenaurach (GER) 14 MAY 2016 1178
26 1:44.93 Michael RIMMER 03 FEB 1986 GBR GBR 1f1 Barcelona (ESP) 30 JUN 2016 1176
27 1:44.99 Shaquille WALKER 24 JUN 1993 USA USA 1 Tempe, AZ (USA) 09 APR 2016 1174
28 1:45.01 Mohamed Amine BELFERAR 16 FEB 1991 ALG ALG 3f1 Barcelona (ESP) 30 JUN 2016 1173
29 1:45.04 Peter Langat KIPLANGAT 06 SEP 1993 KEN KEN 4 Nairobi (KEN) 28 MAY 2016 1172
30 1:45.05 Mostafa SMAILI 09 JAN 1997 MAR MAR 2 Šamorín (SVK) 04 JUN 2016 1172
31 1:45.13 Jeffrey RISELEY 11 NOV 1986 AUS AUS 5 Olympic Stadium, London (GBR) 22 JUL 2016 1169
32 1:45.16 Luke MATHEWS 21 JUN 1995 AUS AUS 2 Albert Park, Melbourne (AUS) 05 MAR 2016 1169
33 1:45.20 Edwin Kiplagat MELLY 23 APR 1994 KEN KEN 1f1 Montbéliard (FRA) 01 JUN 2016 1167
34 1:45.23 Thijmen KUPERS 04 OCT 1991 NED NED 6 Olympic Stadium, London (GBR) 22 JUL 2016 1166
35 1:45.24 Antoine GAKEME 24 DEC 1991 BDI BDI 2f1 Moratalaz, Madrid (ESP) 23 JUN 2016 1166
36 1:45.25 Jeremiah Kipkorir MUTAI 27 DEC 1992 KEN KEN 4 Montreuil-sous-Bois (FRA) 07 JUN 2016 1166
36 1:45.25 Hamada MOHAMED 22 OCT 1992 EGY EGY 2 Barcelona (ESP) 09 JUL 2016 1166
38 1:45.28 Abubaker Haydar ABDALLA 28 AUG 1996 QAT QAT 1 Suhaim bin Hamad Stadium, Doha (QAT) 06 MAY 2016 1165
39 1:45.33 Rynhardt VAN RENSBURG 23 MAR 1992 RSA RSA 5sf2 Estádio Olímpico, Rio de Janeiro (BRA) 13 AUG 2016 1163
40 1:45.35 Erik SOWINSKI 21 DEC 1989 USA USA 7 Olympic Stadium, London (GBR) 22 JUL 2016 1163
41 1:45.36 Mark ENGLISH 18 MAR 1993 IRL IRL 8 Olympic Stadium, London (GBR) 22 JUL 2016 1162
42 1:45.38 Jacob ROZANI 24 JAN 1984 RSA RSA 2 Durban (RSA) 24 JUN 2016 1162
43 1:45.41 Peter BOL 22 FEB 1994 AUS AUS 1f1 Ninove (BEL) 23 JUL 2016 1161
44 1:45.42 Lutimar PAES 14 DEC 1988 BRA BRA 1 Rio de Janeiro (BRA) 15 MAY 2016 1161
45 1:45.47 Duane SOLOMON 28 DEC 1984 USA USA 1f1 Walnut, CA (USA) 16 APR 2016 1159
46 1:45.48 Timothy SEIN 01 FEB 1988 KEN KEN 5 Nairobi (KEN) 28 MAY 2016 1159
46 1:45.48 Charles JOCK 23 NOV 1989 USA USA 3 Hayward Field, Eugene, OR (USA) 04 JUL 2016 1159
48 1:45.53 Charlie DA'VALL GRICE 07 NOV 1993 GBR GBR 9 Olympic Stadium, London (GBR) 22 JUL 2016 1157
49 1:45.54 Elliot GILES 26 MAY 1994 GBR GBR 3 Olympisch Stadion, Amsterdam (NED) 10 JUL 2016 1157
50 1:45.59 Eliud Kipngetich RUTTO 13 MAR 1994 KEN KEN 2f1 Walnut, CA (USA) 16 APR 2016 1156
51 1:45.60 Anthony ROMANIW 15 SEP 1991 CAN CAN 2 Edmonton (CAN) 15 JUL 2016 1155
52 1:45.61 Kevin LÓPEZ 12 JUN 1990 ESP ESP 2f1 Huelva (ESP) 03 JUN 2016 1155
52 1:45.61 Daniel ANDUJAR 14 MAY 1994 ESP ESP 3f1 Huelva (ESP) 03 JUN 2016 1155
54 1:45.65 Drew WINDLE 22 JUL 1992 USA USA 1f1 Portland, OR (USA) 12 JUN 2016 1154
55 1:45.69 Leonard Kirwa KOSENCHA 21 AUG 1994 KEN KEN 2 Miejski Stadion, Szczecin (POL) 18 JUN 2016 1152
56 1:45.75 Yeimer LÓPEZ 20 AUG 1982 CUB CUB 1 Bislett Stadion, Oslo (NOR) 09 JUN 2016 1151
57 1:45.76 Isaiah HARRIS 18 OCT 1996 USA USA 4 Eugene, OR (USA) 10 JUN 2016 1150
58 1:45.77 Harun ABDA 01 JAN 1990 USA USA 3 Eugene, OR (USA) 29 JUL 2016 1150
59 1:45.78 Andrés ARROYO 07 JUN 1995 PUR PUR 2f1 Gainesville, FL (USA) 01 APR 2016 1150
60 1:45.79 Kléberson DAVIDE 20 JUL 1985 BRA BRA 2 Rio de Janeiro (BRA) 15 MAY 2016 1149
61 1:45.83 Abraham Kipchirchir ROTICH 26 SEP 1993 BRN BRN 2f1 Heusden-Zolder (BEL) 16 JUL 2016 1148
62 1:45.84 Robert BIWOTT 28 JAN 1996 KEN KEN 2 Shanghai Stadium, Shanghai (CHN) 14 MAY 2016 1148
63 1:45.87 Abdelatif ELGUESSE 27 FEB 1993 MAR MAR 4 Šamorín (SVK) 04 JUN 2016 1147
63 1:45.87 Boitumelo MASILO 05 AUG 1995 BOT BOT 1f1 Kortrijk (BEL) 09 JUL 2016 1147
63 1:45.87 Andreas BUBE 13 JUL 1987 DEN DEN 7sf2 Estádio Olímpico, Rio de Janeiro (BRA) 13 AUG 2016 1147
66 1:45.88 Mathew RONO KEN KEN 6 Nairobi (KEN) 28 MAY 2016 1147
67 1:45.93 Álvaro DE ARRIBA 02 JUN 1994 ESP ESP 5f1 Moratalaz, Madrid (ESP) 23 JUN 2016 1145
67 1:45.93 Casimir LOXSOM 17 MAR 1991 USA USA 3sf1 Hayward Field, Eugene, OR (USA) 02 JUL 2016 1145
69 1:45.96 James BOWNESS 26 NOV 1991 GBR GBR 2f1 Ninove (BEL) 23 JUL 2016 1144
70 1:45.98 Jinson JOHNSON 15 MAR 1991 IND IND 1 Bangalore (IND) 11 JUL 2016 1144
70 1:45.98 Abdessalem AYOUNI 16 MAY 1994 TUN TUN 1 Paris (FRA) 27 AUG 2016 1144
72 1:46.03 Craig ENGELS 01 MAY 1994 USA USA 4 Hayward Field, Eugene, OR (USA) 04 JUL 2016 1142
73 1:46.04 Andy GONZÁLEZ 17 OCT 1987 CUB CUB 1h1 La Habana (CUB) 28 MAY 2016 1142
74 1:46.06 Robby ANDREWS 29 MAR 1991 USA USA 1f5 Philadelphia, PA (USA) 25 JUN 2016 1141
75 1:46.09 James GURR 20 DEC 1984 AUS AUS 3 Albert Park, Melbourne (AUS) 05 MAR 2016 1140
76 1:46.12 Brandon JOHNSON 02 MAR 1985 USA USA 3 Rio de Janeiro (BRA) 15 MAY 2016 1140
77 1:46.15 Hector HERNANDEZ 24 SEP 1994 PUR PUR 2 Tuscaloosa, AL (USA) 14 MAY 2016 1139
78 1:46.19 Marc REUTHER 23 JUN 1996 GER GER 2 Wiesbaden (GER) 29 JUN 2016 1137
79 1:46.21 Khaled BENMAHDI 22 OCT 1988 ALG ALG 3f1 Ninove (BEL) 23 JUL 2016 1137
80 1:46.22 Sho KAWAMOTO 01 MAR 1993 JPN JPN 1 Nagoya (JPN) 25 JUN 2016 1137
80 1:46.22 Brannon KIDDER 18 NOV 1993 USA USA 3h2 Hayward Field, Eugene, OR (USA) 01 JUL 2016 1137
80 1:46.22 Jamal HAIRANE 26 MAY 1993 QAT QAT 2f1 Kortrijk (BEL) 09 JUL 2016 1137
83 1:46.24 Edward Kibet KEMBOI 09 DEC 1993 KEN KEN 2f1 Portland, OR (USA) 12 JUN 2016 1136
84 1:46.25 Said ADEN 1993 QAT QAT 7f1 Barcelona (ESP) 30 JUN 2016 1136
85 1:46.27 Alexander ROWE 08 JUL 1992 AUS AUS 2 Pfungstadt (GER) 06 JUL 2016 1135
86 1:46.31 Edose IBADIN 27 FEB 1993 USA USA 4h2 Hayward Field, Eugene, OR (USA) 01 JUL 2016 1134
87 1:46.32 Alberto MAMBA 09 OCT 1994 MOZ MOZ 2 Bislett Stadion, Oslo (NOR) 09 JUN 2016 1134
88 1:46.35 Ronald MUSAGALA 16 DEC 1992 UGA UGA 1f1 Oordegem (BEL) 04 JUN 2016 1133
89 1:46.37 Manuel OLMEDO 17 MAY 1983 ESP ESP 1f1 Sevilla (ESP) 08 JUN 2016 1132
90 1:46.39 Sofiane SELMOUNI 22 SEP 1989 FRA FRA 6 Nancy (FRA) 14 JUN 2016 1131
91 1:46.41 Giordano BENEDETTI 22 MAY 1989 ITA ITA 6sf3 Estádio Olímpico, Rio de Janeiro (BRA) 13 AUG 2016 1131
92 1:46.42 Filip SASÍNEK 08 JAN 1996 CZE CZE 1 Letzigrund, Zürich (SUI) 01 SEP 2016 1131
93 1:46.43 Sören LUDOLPH 25 FEB 1988 GER GER 1f2 Regensburg (GER) 05 JUN 2016 1130
94 1:46.44 Charel GRETHEN 02 JUN 1992 LUX LUX 2f1 Oordegem (BEL) 04 JUN 2016 1130
94 1:46.44 Sampson LAARI 03 MAR 1993 USA USA 3sf2 Eugene, OR (USA) 08 JUN 2016 1130
96 1:46.45 Kabelo Simon MOHLOSI 20 JAN 1993 RSA RSA 2 Potchefstroom (RSA) 22 APR 2016 1130
96 1:46.45 Mauris Surel CASTILLO 19 OCT 1984 ESP ESP 7f1 Moratalaz, Madrid (ESP) 23 JUN 2016 1130
98 1:46.47 Brice LEROY 26 JUN 1989 FRA FRA 3f1 Oordegem (BEL) 04 JUN 2016 1129
99 1:46.49 Nasredine KHATIR 30 JAN 1995 FRA FRA 1f2 Montbéliard (FRA) 01 JUN 2016 1128
100 1:46.52 Christian SANDERS 29 APR 1994 USA USA 3sf1 Eugene, OR (USA) 08 JUN 2016 1128